Time;durP1;ratioP1;P1;durP2;ratioP2;P2;SDS_P1;SDS_P2;PMS_P1;PMS_P2;Temp;Humidity;BMP_temperature;BMP_pressure;BME280_temperature;BME280_humidity;BME280_pressure;Samples;Min_cycle;Max_cycle;Signal;HPM_P1;HPM_P2
2021/01/02 00:02:43;;;;;;;47.80;20.90;;;-0.40;99.90;;;;;;5229417;28;20256;-80
2021/01/02 00:05:15;;;;;;;48.47;20.33;;;-0.50;99.90;;;;;;5229537;28;20228;-78
2021/01/02 00:12:16;;;;;;;52.10;20.57;;;-0.50;99.90;;;;;;5232164;27;20610;-79
2021/01/02 00:15:04;;;;;;;53.43;20.70;;;-0.60;99.90;;;;;;5329360;27;20194;-76
2021/01/02 00:17:50;;;;;;;47.53;21.83;;;-0.60;99.90;;;;;;5317509;27;20230;-75
2021/01/02 00:20:33;;;;;;;51.00;20.10;;;-0.70;99.90;;;;;;5336338;27;20190;-77
2021/01/02 00:23:18;;;;;;;52.60;22.90;;;-0.70;99.90;;;;;;5336897;27;20218;-74
2021/01/02 00:26:21;;;;;;;46.90;21.27;;;-0.70;99.90;;;;;;5336386;27;20192;-76
2021/01/02 00:28:54;;;;;;;51.80;20.63;;;-0.80;99.90;;;;;;5335754;27;20540;-78
2021/01/02 00:31:31;;;;;;;52.37;21.73;;;-0.70;99.90;;;;;;5337352;27;20556;-73
2021/01/02 00:34:48;;;;;;;53.63;22.17;;;-0.70;99.90;;;;;;5337880;27;20193;-71
2021/01/02 00:37:29;;;;;;;54.80;24.10;;;-0.70;99.90;;;;;;5231009;28;20291;-73
2021/01/02 00:40:19;;;;;;;53.13;23.27;;;-0.70;99.90;;;;;;5229435;28;20247;-74
2021/01/02 00:42:54;;;;;;;54.10;23.13;;;-0.70;99.90;;;;;;5228784;28;20320;-75
2021/01/02 00:45:32;;;;;;;51.23;23.27;;;-0.70;99.90;;;;;;5228816;28;20190;-74
2021/01/02 00:48:05;;;;;;;55.43;25.17;;;-0.70;99.90;;;;;;5228576;28;20201;-75
2021/01/02 00:50:39;;;;;;;56.27;23.33;;;-0.70;99.90;;;;;;5229219;28;20225;-73
2021/01/02 00:57:17;;;;;;;51.47;21.47;;;-0.60;99.90;;;;;;5230244;28;20184;-77
2021/01/02 01:00:04;;;;;;;59.57;23.30;;;-0.60;99.90;;;;;;5227792;28;20296;-75
2021/01/02 01:02:54;;;;;;;57.50;23.53;;;-0.60;99.90;;;;;;5227614;28;20224;-76
2021/01/02 01:05:33;;;;;;;57.67;23.93;;;-0.60;99.90;;;;;;5227277;28;20201;-77
2021/01/02 01:15:09;;;;;;;60.63;24.80;;;-0.50;99.90;;;;;;5335555;27;20537;-76
2021/01/02 01:18:28;;;;;;;59.67;24.90;;;-0.50;99.90;;;;;;5335361;27;20186;-75
2021/01/02 01:21:01;;;;;;;59.87;25.37;;;-0.50;99.90;;;;;;5248319;28;20204;-70
2021/01/02 01:27:55;;;;;;;60.20;26.47;;;-0.50;99.90;;;;;;5248683;28;20183;-76
2021/01/02 01:30:37;;;;;;;60.30;25.80;;;-0.50;99.90;;;;;;5250299;28;20228;-74
2021/01/02 01:33:12;;;;;;;66.00;25.67;;;-0.50;99.90;;;;;;5249572;28;20638;-74
2021/01/02 01:35:49;;;;;;;65.27;26.27;;;-0.40;99.90;;;;;;5249706;28;20199;-72
2021/01/02 01:38:21;;;;;;;69.63;29.70;;;-0.40;99.90;;;;;;5237063;28;20204;-76
2021/01/02 01:41:11;;;;;;;65.60;26.83;;;-0.40;99.90;;;;;;5250748;28;20232;-77
2021/01/02 01:44:03;;;;;;;65.17;27.33;;;-0.40;99.90;;;;;;5250447;28;20291;-75
2021/01/02 01:46:49;;;;;;;67.40;28.53;;;-0.40;99.90;;;;;;5250118;28;20193;-74
2021/01/02 01:49:30;;;;;;;72.33;29.40;;;-0.40;99.90;;;;;;5250475;28;20231;-76
2021/01/02 01:52:13;;;;;;;76.13;30.13;;;-0.40;99.90;;;;;;5246959;28;20235;-76
2021/01/02 01:55:06;;;;;;;73.80;29.77;;;-0.40;99.90;;;;;;5248437;28;20207;-76
2021/01/02 01:57:41;;;;;;;69.67;28.70;;;-0.40;99.90;;;;;;5328566;27;20209;-76
2021/01/02 02:00:17;;;;;;;63.23;28.33;;;-0.40;99.90;;;;;;5334397;27;20193;-77
2021/01/02 02:02:49;;;;;;;75.70;30.67;;;-0.30;99.90;;;;;;5339849;27;20253;-77
2021/01/02 02:05:24;;;;;;;71.43;29.17;;;-0.30;99.90;;;;;;5342739;27;20551;-78
2021/01/02 02:08:02;;;;;;;78.83;29.60;;;-0.30;99.90;;;;;;5333882;27;20208;-77
2021/01/02 02:10:52;;;;;;;84.33;31.77;;;-0.30;99.90;;;;;;5334400;27;20554;-77
2021/01/02 02:13:36;;;;;;;81.07;29.63;;;-0.30;99.90;;;;;;5334565;27;20194;-77
2021/01/02 02:16:11;;;;;;;75.80;30.10;;;-0.40;99.90;;;;;;5333862;27;20192;-77
2021/01/02 02:18:44;;;;;;;79.10;30.33;;;-0.30;99.90;;;;;;5333753;27;20281;-73
2021/01/02 02:21:27;;;;;;;71.00;29.37;;;-0.30;99.90;;;;;;5334278;27;20205;-79
2021/01/02 02:27:55;;;;;;;78.77;29.40;;;-0.30;99.90;;;;;;5333724;27;20189;-74
2021/01/02 02:30:34;;;;;;;80.03;30.80;;;-0.30;99.90;;;;;;5334649;27;20193;-77
2021/01/02 02:33:08;;;;;;;78.10;29.90;;;-0.30;99.90;;;;;;5335419;27;20202;-77
2021/01/02 02:35:41;;;;;;;78.43;30.47;;;-0.30;99.90;;;;;;5334121;27;20186;-79
2021/01/02 02:38:13;;;;;;;73.67;30.33;;;-0.30;99.90;;;;;;5333378;27;20186;-78
2021/01/02 02:45:23;;;;;;;79.10;30.47;;;-0.30;99.90;;;;;;5311995;28;20199;-77
2021/01/02 02:47:58;;;;;;;84.20;33.00;;;-0.30;99.90;;;;;;5311977;28;20195;-76
2021/01/02 02:50:32;;;;;;;87.53;32.33;;;-0.30;99.90;;;;;;5312055;27;20645;-78
2021/01/02 02:53:10;;;;;;;88.23;33.00;;;-0.30;99.90;;;;;;5315362;27;20191;-77
2021/01/02 02:59:37;;;;;;;81.30;31.43;;;-0.40;99.90;;;;;;5316280;27;20170;-78
2021/01/02 03:02:09;;;;;;;87.07;32.33;;;-0.50;99.90;;;;;;5316758;27;20586;-76
2021/01/02 03:04:41;;;;;;;84.63;31.83;;;-0.50;99.90;;;;;;5316413;27;20191;-77
2021/01/02 03:07:13;;;;;;;82.40;31.33;;;-0.60;99.90;;;;;;5316773;27;20201;-76
2021/01/02 03:09:45;;;;;;;87.07;32.57;;;-0.60;99.90;;;;;;5317550;27;20191;-74
2021/01/02 03:12:16;;;;;;;89.23;32.27;;;-0.70;99.90;;;;;;5317875;27;20593;-76
2021/01/02 03:14:57;;;;;;;83.63;31.97;;;-0.70;99.90;;;;;;5319645;27;20526;-74
2021/01/02 03:17:29;;;;;;;82.87;32.43;;;-0.70;99.90;;;;;;5316855;27;20555;-78
2021/01/02 03:20:01;;;;;;;83.57;31.17;;;-0.70;99.90;;;;;;5298121;27;20271;-78
2021/01/02 03:22:32;;;;;;;90.87;32.47;;;-0.70;99.90;;;;;;5316396;27;20210;-78
2021/01/02 03:25:04;;;;;;;83.43;30.90;;;-0.70;99.90;;;;;;5317909;27;20515;-77
2021/01/02 03:27:37;;;;;;;85.93;31.37;;;-0.70;99.90;;;;;;5318791;27;20198;-77
2021/01/02 03:30:11;;;;;;;84.43;31.93;;;-0.80;99.90;;;;;;5316832;27;20195;-76
2021/01/02 03:32:42;;;;;;;75.37;29.70;;;-0.80;99.90;;;;;;5315792;27;20637;-76
2021/01/02 03:35:16;;;;;;;90.47;31.47;;;-0.80;99.90;;;;;;5297742;27;20526;-76
2021/01/02 03:37:48;;;;;;;81.50;29.37;;;-0.80;99.90;;;;;;5315881;27;20521;-75
2021/01/02 03:40:19;;;;;;;86.40;31.83;;;-0.90;99.90;;;;;;5315667;27;20595;-78
2021/01/02 03:42:50;;;;;;;77.27;31.67;;;-0.90;99.90;;;;;;5297728;27;20681;-76
2021/01/02 03:45:22;;;;;;;87.47;31.43;;;-0.90;99.90;;;;;;5336962;27;20191;-76
2021/01/02 03:47:53;;;;;;;84.17;30.30;;;-0.90;99.90;;;;;;5318640;27;20191;-76
2021/01/02 03:50:25;;;;;;;83.30;30.47;;;-0.90;99.90;;;;;;5336948;27;20196;-77
2021/01/02 03:52:57;;;;;;;84.97;31.77;;;-0.90;99.90;;;;;;5336226;27;20194;-77
2021/01/02 03:55:29;;;;;;;83.30;32.30;;;-1.00;99.90;;;;;;5337649;27;20192;-77
2021/01/02 03:58:01;;;;;;;88.80;32.60;;;-1.00;99.90;;;;;;5336751;27;20193;-76
2021/01/02 04:00:33;;;;;;;92.40;33.23;;;-1.10;99.90;;;;;;5336932;27;20574;-77
2021/01/02 04:03:04;;;;;;;89.53;32.67;;;-1.10;99.90;;;;;;5337173;27;20575;-76
2021/01/02 04:05:36;;;;;;;85.57;30.77;;;-1.10;99.90;;;;;;5336610;27;20202;-75
2021/01/02 04:08:09;;;;;;;91.23;30.27;;;-1.10;99.90;;;;;;5337134;27;20567;-77
2021/01/02 04:10:40;;;;;;;87.57;29.93;;;-1.10;99.90;;;;;;5336415;27;20671;-78
2021/01/02 04:13:14;;;;;;;88.97;31.30;;;-1.10;99.90;;;;;;5318893;27;20611;-76
2021/01/02 04:15:45;;;;;;;82.83;31.97;;;-1.10;99.90;;;;;;5336562;27;20198;-77
2021/01/02 04:18:17;;;;;;;85.93;30.53;;;-1.10;99.90;;;;;;5317998;27;20194;-78
2021/01/02 04:20:52;;;;;;;84.20;31.23;;;-1.10;99.90;;;;;;5336126;27;20197;-78
2021/01/02 04:23:24;;;;;;;83.17;30.00;;;-1.10;99.90;;;;;;5336768;27;20216;-76
2021/01/02 04:25:55;;;;;;;90.70;31.27;;;-1.10;99.90;;;;;;5336494;27;20659;-78
2021/01/02 04:28:27;;;;;;;83.77;31.23;;;-1.20;99.90;;;;;;5341375;27;20186;-74
2021/01/02 04:30:58;;;;;;;87.23;30.63;;;-1.20;99.90;;;;;;5321201;27;20632;-76
2021/01/02 04:33:29;;;;;;;78.83;31.00;;;-1.20;99.90;;;;;;5335775;27;20203;-74
2021/01/02 04:36:01;;;;;;;83.00;31.13;;;-1.20;99.90;;;;;;5335861;27;20193;-75
2021/01/02 04:38:33;;;;;;;95.73;32.40;;;-1.30;99.90;;;;;;5335614;27;20198;-75
2021/01/02 04:41:04;;;;;;;91.00;31.97;;;-1.30;99.90;;;;;;5336677;27;20193;-74
2021/01/02 04:43:36;;;;;;;95.13;32.90;;;-1.30;99.90;;;;;;5321368;27;20248;-75
2021/01/02 04:46:08;;;;;;;89.53;31.27;;;-1.30;99.90;;;;;;5335678;27;20194;-73
2021/01/02 04:48:45;;;;;;;95.93;32.57;;;-1.30;99.90;;;;;;5317166;27;20201;-73
2021/01/02 04:51:18;;;;;;;94.87;33.30;;;-1.20;99.90;;;;;;5335149;27;20197;-73
2021/01/02 04:53:49;;;;;;;89.57;33.03;;;-1.20;99.90;;;;;;5335604;27;20204;-73
2021/01/02 04:56:21;;;;;;;94.00;33.00;;;-1.20;99.90;;;;;;5335742;27;20205;-73
2021/01/02 04:58:53;;;;;;;93.13;33.87;;;-1.20;99.90;;;;;;5335841;27;20212;-76
2021/01/02 05:01:27;;;;;;;97.57;33.10;;;-1.20;99.90;;;;;;5317052;27;20183;-75
2021/01/02 05:03:58;;;;;;;98.03;34.83;;;-1.20;99.90;;;;;;5335256;27;20214;-75
2021/01/02 05:06:30;;;;;;;93.23;34.07;;;-1.10;99.90;;;;;;5335555;27;20200;-75
2021/01/02 05:09:06;;;;;;;103.43;33.73;;;-1.10;99.90;;;;;;5336367;27;20193;-74
2021/01/02 05:11:39;;;;;;;110.23;35.53;;;-1.10;99.90;;;;;;5336496;27;20186;-76
2021/01/02 05:14:10;;;;;;;96.83;32.97;;;-1.10;99.90;;;;;;5335052;27;20260;-75
2021/01/02 05:16:42;;;;;;;107.57;35.27;;;-1.00;99.90;;;;;;5335363;27;20182;-76
2021/01/02 05:19:15;;;;;;;105.07;33.67;;;-1.00;99.90;;;;;;5335733;27;20199;-76
2021/01/02 05:21:48;;;;;;;107.47;33.00;;;-1.00;99.90;;;;;;5336737;27;20186;-72
2021/01/02 05:24:20;;;;;;;102.10;34.20;;;-1.00;99.90;;;;;;5335719;27;20210;-73
2021/01/02 05:26:56;;;;;;;98.63;34.10;;;-1.00;99.90;;;;;;5316975;27;20201;-73
2021/01/02 05:29:31;;;;;;;102.67;35.13;;;-1.00;99.90;;;;;;5335410;27;20200;-72
2021/01/02 05:32:03;;;;;;;100.13;33.50;;;-1.00;99.90;;;;;;5335343;27;20273;-71
2021/01/02 05:34:34;;;;;;;102.27;34.73;;;-1.00;99.90;;;;;;5316457;27;20197;-74
2021/01/02 05:37:08;;;;;;;110.07;34.53;;;-1.00;99.90;;;;;;5334697;27;20204;-73
2021/01/02 05:39:41;;;;;;;108.37;33.27;;;-1.00;99.90;;;;;;5334811;27;20191;-72
2021/01/02 05:42:13;;;;;;;107.00;34.50;;;-1.00;99.90;;;;;;5334326;27;20218;-71
2021/01/02 05:44:45;;;;;;;101.27;33.40;;;-0.90;99.90;;;;;;5315556;27;20237;-75
2021/01/02 05:47:20;;;;;;;111.33;33.23;;;-0.90;99.90;;;;;;5334121;27;20201;-74
2021/01/02 05:49:55;;;;;;;94.90;32.83;;;-0.90;99.90;;;;;;5333939;27;20201;-74
2021/01/02 05:52:33;;;;;;;99.77;34.10;;;-0.90;99.90;;;;;;5316049;27;20638;-75
2021/01/02 05:55:04;;;;;;;102.53;33.83;;;-0.90;99.90;;;;;;5333989;27;20190;-75
2021/01/02 05:57:36;;;;;;;107.13;32.83;;;-0.90;99.90;;;;;;5333830;27;20635;-69
2021/01/02 06:00:11;;;;;;;106.03;33.90;;;-0.90;99.90;;;;;;5334159;27;20196;-68
2021/01/02 06:02:42;;;;;;;105.03;33.10;;;-0.90;99.90;;;;;;5333623;27;20212;-70
2021/01/02 06:05:14;;;;;;;104.97;34.57;;;-0.90;99.90;;;;;;5333508;27;20212;-70
2021/01/02 06:07:50;;;;;;;106.93;34.00;;;-0.90;99.90;;;;;;5333862;27;20194;-70
2021/01/02 06:10:22;;;;;;;109.93;35.33;;;-1.00;99.90;;;;;;5341011;27;20189;-83
2021/01/02 06:12:55;;;;;;;98.50;33.73;;;-1.00;99.90;;;;;;5341055;27;20197;-74
2021/01/02 06:15:30;;;;;;;106.83;35.23;;;-1.00;99.90;;;;;;5314938;27;20182;-71
2021/01/02 06:18:03;;;;;;;96.10;32.70;;;-1.00;99.90;;;;;;5332891;27;20225;-66
2021/01/02 06:20:35;;;;;;;101.77;34.03;;;-1.00;99.90;;;;;;5333431;27;20197;-70
2021/01/02 06:23:13;;;;;;;105.37;36.33;;;-1.00;99.90;;;;;;5333274;27;20571;-69
2021/01/02 06:29:40;;;;;;;99.97;33.73;;;-1.00;99.90;;;;;;5333319;27;20205;-68
2021/01/02 06:32:12;;;;;;;96.63;33.53;;;-1.00;99.90;;;;;;5314663;27;20226;-71
2021/01/02 06:34:44;;;;;;;105.47;34.53;;;-1.00;99.90;;;;;;5333108;27;20293;-72
2021/01/02 06:37:15;;;;;;;106.53;35.93;;;-0.90;99.90;;;;;;5333791;27;20200;-69
2021/01/02 06:39:47;;;;;;;105.87;33.00;;;-0.90;99.90;;;;;;5333000;27;20589;-69
2021/01/02 06:46:14;;;;;;;107.07;34.43;;;-0.90;99.90;;;;;;5332211;27;20525;-69
2021/01/02 06:48:45;;;;;;;115.87;36.03;;;-0.90;99.90;;;;;;5333276;27;20190;-70
2021/01/02 06:51:27;;;;;;;109.90;37.00;;;-0.90;99.90;;;;;;5333169;27;20576;-70
2021/01/02 06:54:00;;;;;;;114.93;37.10;;;-0.90;99.90;;;;;;5333192;27;20202;-69
2021/01/02 06:56:33;;;;;;;113.33;35.53;;;-0.90;99.90;;;;;;5333104;27;20558;-71
2021/01/02 06:59:05;;;;;;;102.90;34.57;;;-0.90;99.90;;;;;;5332844;27;20190;-70
2021/01/02 07:01:37;;;;;;;109.17;34.67;;;-0.80;99.90;;;;;;5315607;27;20198;-70
2021/01/02 07:04:10;;;;;;;112.13;36.73;;;-0.80;99.90;;;;;;5315468;27;20218;-71
2021/01/02 07:06:42;;;;;;;121.97;37.97;;;-0.80;99.90;;;;;;5335670;27;20206;-68
2021/01/02 07:09:21;;;;;;;112.77;37.97;;;-0.80;99.90;;;;;;5337147;27;20671;-71
2021/01/02 07:12:09;;;;;;;113.60;36.33;;;-0.70;99.90;;;;;;5337049;27;20194;-71
2021/01/02 07:14:42;;;;;;;114.10;35.40;;;-0.70;99.90;;;;;;5334383;27;20199;-68
2021/01/02 07:17:23;;;;;;;133.07;40.17;;;-0.70;99.90;;;;;;5333756;27;20200;-73
2021/01/02 07:20:03;;;;;;;114.47;38.40;;;-0.60;99.90;;;;;;5331910;27;20201;-76
2021/01/02 07:22:34;;;;;;;110.03;35.63;;;-0.60;99.90;;;;;;5332043;27;20256;-75
2021/01/02 07:25:08;;;;;;;105.40;36.33;;;-0.60;99.90;;;;;;5332933;27;20198;-75
2021/01/02 07:27:40;;;;;;;123.53;39.23;;;-0.60;99.90;;;;;;5332699;27;20190;-76
2021/01/02 07:30:12;;;;;;;113.03;37.33;;;-0.50;99.90;;;;;;5314365;27;20191;-77
2021/01/02 07:32:45;;;;;;;115.67;36.07;;;-0.50;99.90;;;;;;5332607;27;20595;-77
2021/01/02 07:35:16;;;;;;;106.57;36.60;;;-0.50;99.90;;;;;;5332889;27;20202;-74
2021/01/02 07:37:48;;;;;;;114.40;37.13;;;-0.50;99.90;;;;;;5333509;27;20186;-75
2021/01/02 07:40:19;;;;;;;108.53;36.83;;;-0.50;99.90;;;;;;5336296;27;20191;-75
2021/01/02 07:43:02;;;;;;;107.23;36.17;;;-0.40;99.90;;;;;;5336522;27;20214;-76
2021/01/02 07:45:34;;;;;;;103.33;35.00;;;-0.40;99.90;;;;;;5336643;27;20232;-74
2021/01/02 07:48:06;;;;;;;108.20;34.03;;;-0.40;99.90;;;;;;5336029;27;20195;-75
2021/01/02 07:50:37;;;;;;;113.87;38.03;;;-0.40;99.90;;;;;;5335805;27;20186;-75
2021/01/02 07:53:09;;;;;;;110.17;35.17;;;-0.30;99.90;;;;;;5336552;27;20190;-74
2021/01/02 07:55:42;;;;;;;108.77;37.17;;;-0.30;99.90;;;;;;5336532;27;20191;-72
2021/01/02 07:58:25;;;;;;;113.57;35.40;;;-0.30;99.90;;;;;;5336110;27;20561;-74
2021/01/02 08:01:08;;;;;;;110.97;35.83;;;-0.20;99.90;;;;;;5336068;27;20189;-74
2021/01/02 08:03:40;;;;;;;104.10;33.77;;;-0.20;99.90;;;;;;5335641;27;20210;-76
2021/01/02 08:06:15;;;;;;;102.17;34.83;;;-0.10;99.90;;;;;;5335449;27;20190;-76
2021/01/02 08:08:59;;;;;;;101.80;36.13;;;-0.10;99.90;;;;;;5335460;27;20212;-79
2021/01/02 08:15:35;;;;;;;92.83;32.47;;;0.00;99.90;;;;;;5335658;27;20185;-73
2021/01/02 08:18:10;;;;;;;90.50;32.77;;;0.00;99.90;;;;;;5335508;27;20255;-74
2021/01/02 08:20:42;;;;;;;97.23;33.87;;;0.00;99.90;;;;;;5335340;27;20219;-72
2021/01/02 08:23:28;;;;;;;92.70;32.00;;;0.10;99.90;;;;;;5335696;27;20213;-75
2021/01/02 08:26:17;;;;;;;84.90;29.87;;;0.10;99.90;;;;;;5335979;27;20270;-72
2021/01/02 08:33:05;;;;;;;107.22;43.45;;;0.20;99.90;;;;;;5334435;27;20819;-76
2021/01/02 08:35:47;;;;;;;93.57;34.00;;;0.30;99.90;;;;;;5318399;27;20195;-76
2021/01/02 08:38:31;;;;;;;90.23;32.97;;;0.30;99.90;;;;;;5248484;28;20258;-76
2021/01/02 08:41:22;;;;;;;98.73;33.50;;;0.40;99.90;;;;;;5231815;28;20207;-75
2021/01/02 08:44:01;;;;;;;85.73;32.27;;;0.40;99.90;;;;;;5231266;28;20245;-69
2021/01/02 08:47:04;;;;;;;89.13;31.23;;;0.50;99.90;;;;;;5248010;28;20282;-74
2021/01/02 08:49:46;;;;;;;86.57;31.17;;;0.50;99.90;;;;;;5245329;28;20234;-73
2021/01/02 08:52:29;;;;;;;78.70;30.17;;;0.60;99.90;;;;;;5248169;28;20201;-75
2021/01/02 08:55:19;;;;;;;99.40;32.30;;;0.60;99.90;;;;;;5216487;28;20280;-72
2021/01/02 08:58:00;;;;;;;93.00;31.97;;;0.60;99.90;;;;;;5334861;27;20226;-74
2021/01/02 09:01:08;;;;;;;81.73;31.97;;;0.60;99.90;;;;;;5332963;27;20217;-74
2021/01/02 09:04:17;;;;;;;89.27;34.80;;;0.70;99.90;;;;;;5333137;27;20316;-73
2021/01/02 09:07:08;;;;;;;87.60;33.17;;;0.70;99.90;;;;;;5334649;27;20198;-78
2021/01/02 09:09:47;;;;;;;90.00;34.33;;;0.80;99.90;;;;;;5334794;27;20190;-77
2021/01/02 09:16:43;;;;;;;92.90;34.97;;;0.90;99.90;;;;;;5334810;27;20177;-75
2021/01/02 09:19:34;;;;;;;86.87;35.13;;;0.90;99.90;;;;;;5226265;28;20217;-78
2021/01/02 09:22:29;;;;;;;93.50;35.20;;;1.00;99.90;;;;;;5209717;28;20190;-77
2021/01/02 09:25:12;;;;;;;99.10;35.10;;;1.00;99.90;;;;;;5210407;28;20201;-74
2021/01/02 09:27:51;;;;;;;86.27;34.03;;;1.00;99.90;;;;;;5210070;28;20194;-76
2021/01/02 09:30:36;;;;;;;86.53;34.60;;;1.00;99.90;;;;;;5226181;28;20233;-76
2021/01/02 09:33:15;;;;;;;82.03;31.00;;;1.00;99.90;;;;;;5225542;28;20305;-70
2021/01/02 09:35:56;;;;;;;85.37;32.93;;;1.00;99.90;;;;;;5227333;28;20251;-75
2021/01/02 09:38:40;;;;;;;87.50;32.37;;;1.00;99.90;;;;;;5226939;28;20221;-79
2021/01/02 09:41:40;;;;;;;85.57;32.93;;;1.00;99.90;;;;;;5157294;28;20231;-75
2021/01/02 09:44:26;;;;;;;78.53;31.73;;;1.10;99.90;;;;;;5145053;28;20436;-83
2021/01/02 09:47:03;;;;;;;84.77;32.07;;;1.10;99.90;;;;;;5143649;28;20231;-78
2021/01/02 09:49:45;;;;;;;85.50;31.37;;;1.20;99.90;;;;;;5160066;28;20211;-77
2021/01/02 09:52:32;;;;;;;82.63;31.13;;;1.20;99.90;;;;;;5145758;28;20200;-72
2021/01/02 09:55:13;;;;;;;79.83;30.20;;;1.20;99.90;;;;;;5171846;28;20267;-75
2021/01/02 10:01:31;;;;;;;74.63;29.37;;;1.30;99.90;;;;;;5245885;28;20211;-75
2021/01/02 10:04:08;;;;;;;79.10;31.20;;;1.40;99.90;;;;;;5245575;28;20224;-74
2021/01/02 10:06:58;;;;;;;76.40;30.63;;;1.40;99.90;;;;;;5246896;28;20639;-75
2021/01/02 10:09:50;;;;;;;83.33;29.77;;;1.40;99.90;;;;;;5246325;28;20305;-74
2021/01/02 10:16:40;;;;;;;76.93;28.60;;;1.40;99.90;;;;;;5248083;28;20237;-77
2021/01/02 10:19:20;;;;;;;83.73;29.07;;;1.50;99.90;;;;;;5302230;27;20213;-75
2021/01/02 10:22:03;;;;;;;72.27;27.17;;;1.60;99.90;;;;;;5313196;27;20641;-73
2021/01/02 10:24:48;;;;;;;76.67;27.07;;;1.60;99.90;;;;;;5311879;27;20749;-72
2021/01/02 10:27:27;;;;;;;69.17;26.07;;;1.60;99.90;;;;;;5312271;27;20289;-76
2021/01/02 10:30:11;;;;;;;62.20;26.10;;;1.60;99.90;;;;;;5312481;27;20182;-74
2021/01/02 10:32:55;;;;;;;71.43;27.33;;;1.60;99.90;;;;;;5311883;27;20206;-75
2021/01/02 10:35:30;;;;;;;67.40;25.40;;;1.70;99.90;;;;;;5294321;27;20209;-74
2021/01/02 10:38:21;;;;;;;61.50;24.93;;;1.70;99.90;;;;;;5312857;27;20297;-76
2021/01/02 10:40:53;;;;;;;67.37;25.33;;;1.70;99.90;;;;;;5294712;28;20213;-72
2021/01/02 10:43:35;;;;;;;63.77;24.63;;;1.70;99.90;;;;;;5312165;28;20222;-75
2021/01/02 10:46:14;;;;;;;60.97;23.20;;;1.70;99.90;;;;;;5318893;27;20237;-74
2021/01/02 10:48:53;;;;;;;62.47;25.53;;;1.70;99.90;;;;;;5299050;27;20227;-77
2021/01/02 10:51:30;;;;;;;66.93;25.77;;;1.80;99.90;;;;;;5335835;27;20225;-75
2021/01/02 10:54:08;;;;;;;61.53;24.57;;;1.90;99.90;;;;;;5334211;27;20239;-77
2021/01/02 10:56:56;;;;;;;63.27;23.07;;;1.90;99.90;;;;;;5333530;27;20186;-77
2021/01/02 10:59:35;;;;;;;61.40;23.17;;;1.90;99.90;;;;;;5334289;27;20206;-79
2021/01/02 11:02:19;;;;;;;55.47;22.27;;;2.00;99.90;;;;;;5315600;27;20189;-75
2021/01/02 11:04:57;;;;;;;56.77;22.03;;;2.10;99.90;;;;;;5333641;27;20236;-76
2021/01/02 11:07:39;;;;;;;57.97;22.47;;;2.10;99.90;;;;;;5332813;27;20205;-75
2021/01/02 11:10:20;;;;;;;57.40;21.77;;;2.20;99.90;;;;;;5333438;27;20190;-77
2021/01/02 11:16:57;;;;;;;52.97;20.80;;;2.30;99.90;;;;;;5338020;27;20209;-72
2021/01/02 11:19:35;;;;;;;48.83;19.33;;;2.30;99.90;;;;;;5337756;27;20624;-72
2021/01/02 11:22:07;;;;;;;55.63;20.57;;;2.30;99.90;;;;;;5336353;27;20209;-74
2021/01/02 11:24:41;;;;;;;54.23;21.20;;;2.40;99.90;;;;;;5336472;27;20281;-71
2021/01/02 11:27:18;;;;;;;50.53;22.33;;;2.40;99.90;;;;;;5337042;27;20193;-76
2021/01/02 11:33:57;;;;;;;50.30;19.27;;;2.40;99.90;;;;;;5336684;27;20177;-74
2021/01/02 11:36:33;;;;;;;53.37;21.63;;;2.30;99.90;;;;;;5337475;27;20566;-77
2021/01/02 11:39:11;;;;;;;53.63;21.80;;;2.30;99.90;;;;;;5316889;27;20285;-80
2021/01/02 11:41:47;;;;;;;54.03;21.50;;;2.30;99.90;;;;;;5335130;27;20194;-75
2021/01/02 11:44:36;;;;;;;55.10;21.07;;;2.20;99.90;;;;;;5339068;27;20234;-77
2021/01/02 11:47:15;;;;;;;48.10;21.03;;;2.20;99.90;;;;;;5320696;27;20233;-80
2021/01/02 11:50:09;;;;;;;;;;;;;;;;;;;;;
2021/01/02 11:52:47;;;;;;;54.23;21.47;;;2.20;99.90;;;;;;5336694;27;20206;-80
2021/01/02 11:55:23;;;;;;;50.07;21.03;;;2.20;99.90;;;;;;5338351;27;20207;-76
2021/01/02 12:01:50;;;;;;;54.93;21.73;;;2.30;99.90;;;;;;5339562;27;20191;-72
2021/01/02 12:04:57;;;;;;;49.87;20.97;;;2.30;99.90;;;;;;5337772;27;20224;-73
2021/01/02 12:07:30;;;;;;;50.30;19.73;;;2.40;99.90;;;;;;5338124;27;20208;-74
2021/01/02 12:10:13;;;;;;;42.77;19.53;;;2.40;99.90;;;;;;5333422;27;20288;-75
2021/01/02 12:17:25;;;;;;;44.60;19.03;;;2.50;99.90;;;;;;5337003;27;20620;-72
2021/01/02 12:20:04;;;;;;;43.10;19.77;;;2.50;99.90;;;;;;5337385;27;20195;-78
2021/01/02 12:22:39;;;;;;;47.67;19.80;;;2.50;99.90;;;;;;5338210;27;20182;-70
2021/01/02 12:25:36;;;;;;;48.23;19.73;;;2.50;99.90;;;;;;5318730;27;20197;-76
2021/01/02 12:28:31;;;;;;;48.03;19.37;;;2.50;99.90;;;;;;5217079;28;20263;-73
2021/01/02 12:31:28;;;;;;;48.13;19.13;;;2.40;99.90;;;;;;5226744;28;20636;-74
2021/01/02 12:34:08;;;;;;;40.33;18.40;;;2.30;99.90;;;;;;5228486;28;20275;-73
2021/01/02 12:37:04;;;;;;;42.57;17.67;;;2.30;99.90;;;;;;5213616;28;20619;-76
2021/01/02 12:39:51;;;;;;;43.50;16.83;;;2.40;99.90;;;;;;5228890;28;20205;-78
2021/01/02 12:42:32;;;;;;;42.57;18.40;;;2.30;99.90;;;;;;5230841;28;20208;-76
2021/01/02 12:45:16;;;;;;;41.80;17.37;;;2.40;99.90;;;;;;5226594;28;20279;-72
2021/01/02 12:47:58;;;;;;;43.93;18.00;;;2.30;99.90;;;;;;5226910;28;20296;-76
2021/01/02 12:50:38;;;;;;;43.87;17.93;;;2.30;99.90;;;;;;5228681;28;20204;-74
2021/01/02 12:53:18;;;;;;;40.03;17.73;;;2.30;99.90;;;;;;5228445;28;20209;-75
2021/01/02 12:56:15;;;;;;;48.40;20.33;;;2.40;99.90;;;;;;5210016;28;20213;-76
2021/01/02 13:03:33;;;;;;;40.63;18.30;;;2.30;99.90;;;;;;5336292;27;20211;-76
2021/01/02 13:06:32;;;;;;;45.83;18.33;;;2.30;99.90;;;;;;5316829;27;20198;-74
2021/01/02 13:09:16;;;;;;;47.73;19.57;;;2.30;99.90;;;;;;5334779;27;20202;-77
2021/01/02 13:12:01;;;;;;;49.37;20.60;;;2.20;99.90;;;;;;5319584;27;20187;-74
2021/01/02 13:14:45;;;;;;;49.73;22.10;;;2.20;99.90;;;;;;5317370;27;20672;-70
2021/01/02 13:17:29;;;;;;;46.27;20.07;;;2.20;99.90;;;;;;5335122;27;20194;-74
2021/01/02 13:20:09;;;;;;;46.40;20.67;;;2.20;99.90;;;;;;5332987;27;20646;-76
2021/01/02 13:22:45;;;;;;;49.57;21.53;;;2.20;99.90;;;;;;5316245;27;20301;-75
2021/01/02 13:25:27;;;;;;;48.77;20.70;;;2.20;99.90;;;;;;5316282;27;20194;-76
2021/01/02 13:32:38;;;;;;;;;;;;;;;;;;;;;
2021/01/02 13:35:25;;;;;;;45.90;19.17;;;2.20;99.90;;;;;;5127060;28;20211;-75
2021/01/02 13:37:59;;;;;;;47.53;19.63;;;2.20;99.90;;;;;;5124894;29;20655;-74
2021/01/02 13:40:32;;;;;;;51.17;20.10;;;2.20;99.90;;;;;;5125374;29;20547;-78
2021/01/02 13:43:09;;;;;;;48.87;20.30;;;2.10;99.90;;;;;;5125349;29;20251;-76
2021/01/02 13:45:40;;;;;;;41.57;18.40;;;2.10;99.90;;;;;;5124087;29;20216;-73
2021/01/02 13:48:17;;;;;;;47.23;21.20;;;2.10;99.90;;;;;;5118757;29;20228;-76
2021/01/02 13:51:02;;;;;;;53.60;21.30;;;2.00;99.90;;;;;;5116717;29;20655;-75
2021/01/02 13:53:58;;;;;;;57.10;22.73;;;2.00;99.90;;;;;;5110752;29;20208;-80
2021/01/02 13:56:47;;;;;;;51.23;22.17;;;1.90;99.90;;;;;;5125637;29;20209;-77
2021/01/02 14:03:39;;;;;;;53.23;22.60;;;1.90;99.90;;;;;;5227006;28;20750;-80
2021/01/02 14:06:35;;;;;;;57.00;23.83;;;1.80;99.90;;;;;;5244633;28;20240;-83
2021/01/02 14:09:15;;;;;;;59.57;25.57;;;1.80;99.90;;;;;;5248560;28;20189;-75
2021/01/02 14:11:53;;;;;;;61.77;23.83;;;1.70;99.90;;;;;;5264888;27;20675;-83
2021/01/02 14:14:30;;;;;;;57.83;26.67;;;1.70;99.90;;;;;;5334733;27;20209;-75
2021/01/02 14:17:28;;;;;;;66.90;28.73;;;1.70;99.90;;;;;;5289439;28;20287;-75
2021/01/02 14:20:05;;;;;;;66.50;28.97;;;1.60;99.90;;;;;;5289835;28;20215;-75
2021/01/02 14:22:43;;;;;;;67.70;28.20;;;1.60;99.90;;;;;;5289138;28;20562;-81
2021/01/02 14:25:17;;;;;;;66.87;29.43;;;1.60;99.90;;;;;;5293441;28;20576;-82
2021/01/02 14:27:49;;;;;;;66.70;28.30;;;1.50;99.90;;;;;;5290721;28;20243;-83
2021/01/02 14:30:27;;;;;;;70.63;28.40;;;1.50;99.90;;;;;;5273403;28;20302;-81
2021/01/02 14:32:58;;;;;;;68.83;29.17;;;1.50;99.90;;;;;;5290746;28;20199;-77
2021/01/02 14:35:32;;;;;;;68.30;28.30;;;1.50;99.90;;;;;;5274540;28;20275;-77
2021/01/02 14:38:04;;;;;;;72.03;30.40;;;1.50;99.90;;;;;;5293503;28;20290;-79
2021/01/02 14:40:38;;;;;;;72.77;29.23;;;1.40;99.90;;;;;;5292156;28;20290;-78
2021/01/02 14:43:10;;;;;;;70.73;30.13;;;1.40;99.90;;;;;;5291652;28;20655;-80
2021/01/02 14:45:44;;;;;;;70.03;29.93;;;1.40;99.90;;;;;;5296035;28;20616;-85
2021/01/02 14:48:16;;;;;;;71.23;30.13;;;1.40;99.90;;;;;;5323198;27;20221;-84
2021/01/02 14:50:54;;;;;;;75.57;31.83;;;1.40;99.90;;;;;;5347400;27;20280;-79
2021/01/02 14:53:28;;;;;;;73.63;32.10;;;1.30;99.90;;;;;;5340447;27;20205;-78
2021/01/02 14:56:01;;;;;;;70.90;31.77;;;1.30;99.90;;;;;;5338808;27;20247;-81
2021/01/02 14:58:33;;;;;;;73.60;30.50;;;1.30;99.90;;;;;;5338879;27;20190;-75